createdAt,value
2022-09-15T00:00:50.321Z,16.93
2022-09-15T00:03:17.761Z,20.20
2022-09-15T00:05:45.118Z,20.80
2022-09-15T00:08:15.872Z,18.60
2022-09-15T00:11:15.005Z,24.93
2022-09-15T00:13:42.299Z,20.73
2022-09-15T00:16:14.621Z,25.80
2022-09-15T00:18:43.157Z,21.43
2022-09-15T00:21:12.817Z,18.10
2022-09-15T00:23:39.760Z,22.83
2022-09-15T00:26:11.506Z,17.63
2022-09-15T00:28:38.984Z,21.37
2022-09-15T00:31:08.610Z,19.50
2022-09-15T00:33:35.820Z,20.87
2022-09-15T00:36:05.159Z,21.43
2022-09-15T00:38:32.854Z,21.40
2022-09-15T00:41:01.609Z,21.10
2022-09-15T00:43:48.707Z,20.83
2022-09-15T00:46:17.780Z,19.90
2022-09-15T00:49:00.243Z,17.10
2022-09-15T00:51:35.986Z,19.30
2022-09-15T00:54:06.686Z,16.43
2022-09-15T00:56:34.964Z,16.73
2022-09-15T00:59:05.235Z,19.33
2022-09-15T01:01:38.104Z,18.23
2022-09-15T01:04:04.822Z,18.03
2022-09-15T01:06:39.026Z,14.93
2022-09-15T01:09:16.663Z,16.50
2022-09-15T01:11:43.758Z,16.90
2022-09-15T01:14:11.324Z,15.70
2022-09-15T01:17:04.206Z,16.83
2022-09-15T01:19:51.938Z,16.00
2022-09-15T01:22:39.565Z,16.30
2022-09-15T01:25:27.812Z,18.50
2022-09-15T01:28:57.329Z,14.77
2022-09-15T01:31:26.624Z,15.20
2022-09-15T01:34:13.231Z,15.10
2022-09-15T01:36:50.415Z,16.53
2022-09-15T01:39:25.531Z,16.00
2022-09-15T01:41:58.235Z,12.87
2022-09-15T01:44:44.755Z,15.27
2022-09-15T01:47:15.877Z,15.50
2022-09-15T01:49:56.807Z,18.47
2022-09-15T01:52:25.694Z,18.10
2022-09-15T01:54:56.660Z,14.50
2022-09-15T01:57:23.720Z,18.17
2022-09-15T01:59:52.181Z,16.37
2022-09-15T02:02:30.812Z,12.27
2022-09-15T02:05:18.080Z,13.47
2022-09-15T02:07:58.852Z,14.73
2022-09-15T02:10:57.607Z,14.90
2022-09-15T02:14:11.554Z,15.47
2022-09-15T02:16:45.303Z,16.90
2022-09-15T02:19:35.998Z,15.73
2022-09-15T02:22:24.210Z,15.67
2022-09-15T02:25:03.076Z,12.93
2022-09-15T02:27:33.739Z,14.73
2022-09-15T02:30:06.607Z,17.60
2022-09-15T02:32:36.849Z,14.30
2022-09-15T02:35:07.738Z,15.40
2022-09-15T02:37:36.563Z,16.63
2022-09-15T02:40:04.513Z,20.23
2022-09-15T02:42:32.511Z,13.87
2022-09-15T02:45:00.774Z,14.33
2022-09-15T02:47:32.107Z,21.50
2022-09-15T02:49:59.033Z,16.27
2022-09-15T02:52:26.175Z,18.27
2022-09-15T02:54:53.493Z,20.47
2022-09-15T02:57:20.970Z,17.80
2022-09-15T03:00:07.096Z,15.93
2022-09-15T03:02:34.134Z,17.37
2022-09-15T03:05:00.934Z,18.00
2022-09-15T03:07:28.583Z,15.63
2022-09-15T03:09:55.685Z,16.77
2022-09-15T03:12:22.477Z,15.37
2022-09-15T03:14:51.850Z,19.37
2022-09-15T03:17:22.049Z,17.07
2022-09-15T03:19:49.988Z,15.30
2022-09-15T03:22:16.624Z,16.23
2022-09-15T03:24:46.449Z,16.23
2022-09-15T03:27:13.182Z,16.07
2022-09-15T03:29:39.843Z,15.80
2022-09-15T03:32:06.526Z,15.27
2022-09-15T03:34:33.200Z,13.53
2022-09-15T03:36:59.970Z,14.23
2022-09-15T03:39:26.962Z,11.83
2022-09-15T03:41:54.049Z,14.03
2022-09-15T03:44:23.034Z,16.30
2022-09-15T03:46:49.702Z,13.70
2022-09-15T03:49:16.468Z,17.20
2022-09-15T03:51:43.249Z,15.63
2022-09-15T03:54:10.776Z,12.87
2022-09-15T03:56:51.843Z,14.50
2022-09-15T03:59:19.514Z,16.50
2022-09-15T04:01:48.360Z,15.07
2022-09-15T04:04:15.514Z,13.33
2022-09-15T04:06:42.307Z,14.23
2022-09-15T04:09:09.057Z,13.13
2022-09-15T04:11:36.362Z,10.43
2022-09-15T04:14:03.188Z,13.23
2022-09-15T04:16:30.212Z,16.33
2022-09-15T04:18:57.659Z,12.30
2022-09-15T04:21:26.788Z,13.60
2022-09-15T04:23:54.194Z,12.23
2022-09-15T04:26:28.271Z,13.67
2022-09-15T04:28:54.950Z,16.40
2022-09-15T04:31:21.778Z,13.40
2022-09-15T04:33:52.135Z,13.80
2022-09-15T04:36:21.648Z,14.73
2022-09-15T04:38:52.252Z,13.67
2022-09-15T04:41:19.901Z,13.23
2022-09-15T04:43:47.599Z,15.13
2022-09-15T04:46:15.644Z,16.00
2022-09-15T04:48:44.170Z,15.53
2022-09-15T04:51:13.387Z,13.63
2022-09-15T04:53:40.600Z,14.90
2022-09-15T04:56:12.899Z,14.83
2022-09-15T04:58:48.563Z,13.07
2022-09-15T05:01:29.585Z,13.00
2022-09-15T05:03:56.698Z,14.27
2022-09-15T05:06:25.784Z,19.07
2022-09-15T05:08:55.029Z,19.13
2022-09-15T05:11:22.402Z,18.57
2022-09-15T05:13:51.911Z,16.83
2022-09-15T05:16:26.905Z,16.70
2022-09-15T05:18:55.731Z,13.67
2022-09-15T05:21:24.198Z,13.80
2022-09-15T05:23:52.133Z,18.00
2022-09-15T05:26:21.752Z,13.00
2022-09-15T05:28:48.529Z,14.07
2022-09-15T05:31:24.079Z,12.93
2022-09-15T05:33:54.443Z,13.80
2022-09-15T05:36:25.337Z,9.63
2022-09-15T05:38:59.263Z,15.70
2022-09-15T05:41:27.542Z,14.17
2022-09-15T05:44:02.649Z,12.33
2022-09-15T05:46:30.179Z,15.20
2022-09-15T05:48:59.047Z,13.33
2022-09-15T05:51:27.751Z,13.73
2022-09-15T05:53:57.113Z,15.07
2022-09-15T05:56:23.970Z,14.93
2022-09-15T05:58:50.681Z,12.97
2022-09-15T06:01:23.756Z,17.17
2022-09-15T06:03:51.167Z,13.37
2022-09-15T06:06:18.670Z,14.67
2022-09-15T06:08:50.059Z,15.30
2022-09-15T06:11:22.409Z,13.37
2022-09-15T06:13:49.300Z,13.93
2022-09-15T06:16:19.546Z,14.53
2022-09-15T06:18:51.102Z,10.27
2022-09-15T06:21:26.628Z,11.53
2022-09-15T06:23:55.412Z,11.50
2022-09-15T06:26:25.049Z,13.00
2022-09-15T06:29:00.577Z,13.57
2022-09-15T06:31:32.422Z,11.83
2022-09-15T06:34:00.206Z,11.40
2022-09-15T06:36:33.397Z,12.67
2022-09-15T06:39:00.435Z,9.73
2022-09-15T06:41:35.350Z,12.83
2022-09-15T06:44:10.106Z,11.77
2022-09-15T06:46:36.878Z,11.80
2022-09-15T06:49:03.925Z,10.30
2022-09-15T06:51:35.452Z,9.90
2022-09-15T06:54:03.063Z,9.60
2022-09-15T06:56:31.694Z,13.57
2022-09-15T06:59:01.440Z,8.83
2022-09-15T07:01:30.541Z,12.90
2022-09-15T07:03:59.040Z,10.47
2022-09-15T07:06:29.653Z,10.67
2022-09-15T07:08:57.199Z,10.53
2022-09-15T07:11:24.470Z,10.70
2022-09-15T07:13:51.733Z,11.07
2022-09-15T07:16:19.542Z,12.60
2022-09-15T07:18:47.631Z,10.77
2022-09-15T07:21:17.560Z,15.27
2022-09-15T07:23:44.631Z,11.20
2022-09-15T07:26:21.256Z,9.50
2022-09-15T07:28:55.221Z,10.53
2022-09-15T07:31:24.433Z,9.93
2022-09-15T07:33:51.454Z,10.57
2022-09-15T07:36:19.031Z,13.53
2022-09-15T07:38:48.280Z,9.43
2022-09-15T07:41:38.251Z,11.13
2022-09-15T07:44:09.155Z,7.17
2022-09-15T07:46:36.404Z,8.70
2022-09-15T07:49:04.444Z,8.83
2022-09-15T07:51:33.519Z,9.77
2022-09-15T07:54:00.489Z,6.53
2022-09-15T07:56:27.428Z,9.27
2022-09-15T07:58:54.185Z,10.87
2022-09-15T08:01:22.644Z,8.50
2022-09-15T08:03:53.101Z,8.27
2022-09-15T08:06:25.002Z,8.83
2022-09-15T08:08:59.956Z,7.13
2022-09-15T08:11:30.735Z,6.50
2022-09-15T08:14:03.528Z,10.23
2022-09-15T08:16:31.014Z,5.33
2022-09-15T08:18:57.894Z,7.63
2022-09-15T08:21:24.680Z,6.23
2022-09-15T08:26:28.449Z,2.90
2022-09-15T08:28:55.414Z,5.43
2022-09-15T08:31:24.162Z,7.13
2022-09-15T08:33:53.382Z,5.83
2022-09-15T08:36:24.569Z,4.93
2022-09-15T08:38:54.335Z,8.43
2022-09-15T08:41:34.179Z,6.83
2022-09-15T08:44:30.975Z,4.80
2022-09-15T08:47:09.919Z,3.23
2022-09-15T08:49:51.501Z,7.47
2022-09-15T08:52:36.938Z,3.77
2022-09-15T08:55:12.569Z,5.30
2022-09-15T08:57:39.444Z,8.17
2022-09-15T09:00:13.485Z,3.90
2022-09-15T09:03:09.086Z,5.70
2022-09-15T09:05:41.892Z,5.97
2022-09-15T09:08:20.663Z,6.17
2022-09-15T09:11:08.731Z,3.63
2022-09-15T09:13:52.894Z,4.63
2022-09-15T09:16:32.942Z,4.00
2022-09-15T09:19:32.464Z,6.93
2022-09-15T09:22:07.491Z,6.83
2022-09-15T09:24:46.268Z,5.33
2022-09-15T09:27:19.095Z,5.90
2022-09-15T09:29:54.140Z,5.23
2022-09-15T09:32:27.445Z,3.40
2022-09-15T09:34:59.157Z,7.17
2022-09-15T09:37:25.898Z,8.20
2022-09-15T09:39:52.776Z,7.93
2022-09-15T09:42:20.140Z,6.87
2022-09-15T09:44:49.951Z,5.47
2022-09-15T09:47:17.205Z,5.67
2022-09-15T09:49:49.059Z,5.97
2022-09-15T09:52:37.164Z,6.93
2022-09-15T09:55:19.108Z,9.10
2022-09-15T09:57:45.831Z,5.50
2022-09-15T10:00:35.599Z,7.40
2022-09-15T10:03:28.026Z,4.50
2022-09-15T10:06:24.040Z,6.93
2022-09-15T10:09:09.475Z,5.40
2022-09-15T10:11:43.657Z,4.83
2022-09-15T10:14:31.614Z,4.87
2022-09-15T10:17:13.247Z,5.97
2022-09-15T10:19:42.983Z,4.50
2022-09-15T10:22:12.786Z,3.47
2022-09-15T10:24:40.279Z,4.00
2022-09-15T10:27:27.472Z,3.40
2022-09-15T10:29:55.053Z,3.77
2022-09-15T10:32:25.537Z,1.83
2022-09-15T10:35:06.182Z,4.00
2022-09-15T10:37:45.016Z,3.90
2022-09-15T10:40:42.443Z,3.93
2022-09-15T10:43:50.788Z,3.87
2022-09-15T10:46:44.888Z,4.77
2022-09-15T10:49:29.515Z,3.37
2022-09-15T10:52:28.980Z,4.90
2022-09-15T10:55:10.923Z,3.63
2022-09-15T10:57:49.941Z,2.63
2022-09-15T11:00:22.758Z,6.10
2022-09-15T11:03:12.316Z,4.37
2022-09-15T11:05:44.825Z,4.60
2022-09-15T11:08:31.894Z,5.77
2022-09-15T11:11:23.288Z,4.47
2022-09-15T11:14:04.732Z,5.43
2022-09-15T11:16:56.044Z,5.13
2022-09-15T11:19:44.348Z,4.07
2022-09-15T11:22:33.046Z,5.90
2022-09-15T11:25:03.906Z,5.20
2022-09-15T11:27:37.318Z,4.17
2022-09-15T11:30:06.580Z,2.93
2022-09-15T11:32:46.831Z,6.63
2022-09-15T11:35:23.029Z,3.00
2022-09-15T11:37:56.903Z,3.83
2022-09-15T11:40:36.955Z,4.73
2022-09-15T11:43:21.172Z,3.83
2022-09-15T11:45:57.991Z,4.27
2022-09-15T11:48:47.238Z,7.10
2022-09-15T11:51:17.165Z,5.50
2022-09-15T11:53:47.513Z,3.93
2022-09-15T11:56:47.397Z,3.07
2022-09-15T11:59:20.191Z,2.63
2022-09-15T12:02:12.133Z,3.30
2022-09-15T12:04:46.236Z,4.17
2022-09-15T12:07:18.670Z,3.40
2022-09-15T12:09:45.571Z,1.97
2022-09-15T12:12:23.086Z,2.57
2022-09-15T12:14:54.032Z,4.90
2022-09-15T12:17:31.881Z,5.03
2022-09-15T12:20:04.326Z,3.83
2022-09-15T12:22:37.395Z,2.33
2022-09-15T12:25:38.395Z,2.57
2022-09-15T12:28:23.179Z,4.13
2022-09-15T12:31:12.285Z,3.23
2022-09-15T12:34:06.825Z,3.13
2022-09-15T12:36:48.211Z,2.33
2022-09-15T12:39:34.354Z,3.43
2022-09-15T12:42:00.987Z,2.83
2022-09-15T12:44:47.739Z,3.13
2022-09-15T12:47:26.612Z,3.53
2022-09-15T12:49:57.211Z,3.13
2022-09-15T12:52:25.488Z,4.27
2022-09-15T12:55:26.837Z,3.03
2022-09-15T12:58:00.118Z,4.50
2022-09-15T13:00:33.643Z,4.73
2022-09-15T13:03:01.947Z,2.73
2022-09-15T13:05:46.127Z,4.07
2022-09-15T13:08:34.560Z,1.77
2022-09-15T13:11:05.605Z,4.47
2022-09-15T13:13:43.926Z,3.63
2022-09-15T13:16:48.714Z,5.10
2022-09-15T13:19:41.956Z,1.93
2022-09-15T13:22:11.689Z,3.73
2022-09-15T13:24:57.811Z,4.60
2022-09-15T13:27:36.395Z,5.03
2022-09-15T13:30:18.030Z,5.00
2022-09-15T13:33:26.618Z,2.30
2022-09-15T13:36:14.911Z,2.83
2022-09-15T13:38:59.752Z,4.20
2022-09-15T13:41:52.236Z,1.37
2022-09-15T13:44:26.723Z,1.70
2022-09-15T13:47:18.011Z,5.13
2022-09-15T13:49:53.409Z,2.40
2022-09-15T13:52:23.441Z,4.27
2022-09-15T13:55:10.354Z,2.40
2022-09-15T14:00:33.938Z,4.17
2022-09-15T14:03:09.753Z,4.27
2022-09-15T14:05:37.374Z,5.10
2022-09-15T14:08:11.665Z,4.67
2022-09-15T14:10:50.386Z,3.80
2022-09-15T14:13:21.991Z,8.07
2022-09-15T14:16:11.782Z,4.17
2022-09-15T14:18:44.328Z,2.33
2022-09-15T14:21:20.192Z,2.40
2022-09-15T14:23:48.752Z,3.27
2022-09-15T14:26:17.574Z,6.73
2022-09-15T14:28:57.237Z,4.77
2022-09-15T14:31:43.522Z,5.17
2022-09-15T14:34:26.333Z,4.80
2022-09-15T14:37:04.177Z,2.60
2022-09-15T14:39:32.031Z,3.90
2022-09-15T14:47:31.280Z,2.00
2022-09-15T14:50:20.464Z,2.10
2022-09-15T14:53:00.140Z,3.03
2022-09-15T14:55:52.004Z,2.77
2022-09-15T14:58:35.593Z,4.17
2022-09-15T15:01:15.700Z,2.90
2022-09-15T15:03:59.992Z,4.37
2022-09-15T15:06:35.101Z,1.70
2022-09-15T15:09:33.169Z,3.43
2022-09-15T15:12:05.219Z,3.40
2022-09-15T15:14:32.608Z,3.07
2022-09-15T15:17:02.417Z,1.50
2022-09-15T15:19:41.436Z,3.00
2022-09-15T15:22:19.950Z,2.07
2022-09-15T15:24:49.948Z,4.23
2022-09-15T15:27:32.486Z,3.80
2022-09-15T15:30:33.790Z,2.30
2022-09-15T15:33:02.125Z,2.90
2022-09-15T15:35:30.678Z,4.63
2022-09-15T15:38:07.793Z,7.40
2022-09-15T15:40:37.585Z,2.70
2022-09-15T15:43:07.908Z,2.57
2022-09-15T15:45:47.495Z,2.97
2022-09-15T15:48:14.269Z,5.53
2022-09-15T15:50:40.967Z,3.30
2022-09-15T15:53:07.664Z,2.97
2022-09-15T15:55:40.751Z,4.90
2022-09-15T15:58:09.520Z,3.60
2022-09-15T16:00:41.910Z,2.53
2022-09-15T16:03:09.226Z,3.63
2022-09-15T16:05:37.155Z,3.07
2022-09-15T16:08:10.641Z,1.13
2022-09-15T16:10:42.011Z,3.63
2022-09-15T16:13:12.880Z,2.40
2022-09-15T16:15:39.629Z,2.63
2022-09-15T16:18:06.387Z,2.70
2022-09-15T16:20:35.626Z,2.43
2022-09-15T16:23:05.909Z,4.67
2022-09-15T16:25:59.481Z,2.93
2022-09-15T16:28:26.562Z,2.93
2022-09-15T16:30:53.392Z,2.47
2022-09-15T16:33:20.191Z,4.13
2022-09-15T16:35:55.194Z,5.23
2022-09-15T16:38:25.522Z,6.53
2022-09-15T16:40:52.755Z,3.67
2022-09-15T16:43:21.609Z,3.10
2022-09-15T16:45:49.562Z,3.57
2022-09-15T16:48:16.758Z,1.30
2022-09-15T16:51:09.538Z,4.17
2022-09-15T16:53:31.099Z,2.87
2022-09-15T16:55:57.959Z,3.17
2022-09-15T16:58:24.770Z,2.20
2022-09-15T17:00:52.851Z,2.33
2022-09-15T17:03:21.776Z,4.07
2022-09-15T17:05:50.473Z,6.97
2022-09-15T17:08:19.292Z,6.43
2022-09-15T17:10:46.896Z,6.17
2022-09-15T17:13:23.087Z,8.30
2022-09-15T17:15:54.203Z,3.47
2022-09-15T17:18:21.991Z,3.10
2022-09-15T17:20:49.756Z,7.20
2022-09-15T17:23:21.187Z,2.50
2022-09-15T17:25:57.227Z,4.70
2022-09-15T17:28:26.619Z,4.53
2022-09-15T17:30:58.832Z,2.33
2022-09-15T17:33:25.816Z,3.33
2022-09-15T17:35:52.725Z,4.90
2022-09-15T17:38:23.143Z,3.80
2022-09-15T17:40:50.944Z,5.37
2022-09-15T17:43:20.231Z,7.70
2022-09-15T17:45:48.787Z,7.93
2022-09-15T17:48:16.446Z,3.80
2022-09-15T17:50:43.821Z,7.57
2022-09-15T17:53:14.323Z,4.93
2022-09-15T17:55:44.718Z,4.23
2022-09-15T17:58:12.267Z,6.27
2022-09-15T18:00:41.768Z,5.27
2022-09-15T18:03:20.220Z,4.37
2022-09-15T18:05:47.348Z,6.23
2022-09-15T18:08:14.300Z,4.00
2022-09-15T18:10:41.023Z,5.37
2022-09-15T18:13:13.308Z,4.83
2022-09-15T18:15:40.226Z,5.77
2022-09-15T18:18:09.114Z,4.73
2022-09-15T18:20:36.871Z,6.83
2022-09-15T18:23:03.570Z,4.97
2022-09-15T18:25:35.776Z,2.47
2022-09-15T18:28:03.586Z,6.30
2022-09-15T18:30:41.950Z,5.07
2022-09-15T18:33:18.376Z,4.87
2022-09-15T18:35:46.384Z,2.97
2022-09-15T18:38:13.486Z,5.90
2022-09-15T18:40:49.091Z,3.23
2022-09-15T18:43:19.882Z,4.23
2022-09-15T18:45:46.964Z,3.27
2022-09-15T18:48:13.774Z,7.33
2022-09-15T18:50:41.382Z,6.63
2022-09-15T18:53:08.789Z,3.17
2022-09-15T18:55:36.367Z,5.87
2022-09-15T18:58:03.128Z,4.27
2022-09-15T19:00:29.994Z,9.10
2022-09-15T19:03:01.766Z,6.57
2022-09-15T19:05:32.967Z,4.93
2022-09-15T19:08:02.723Z,6.17
2022-09-15T19:10:30.370Z,5.60
2022-09-15T19:12:57.319Z,4.63
2022-09-15T19:15:24.211Z,3.97
2022-09-15T19:17:51.240Z,4.80
2022-09-15T19:20:18.500Z,4.83
2022-09-15T19:22:46.048Z,5.87
2022-09-15T19:25:15.613Z,3.50
2022-09-15T19:27:43.254Z,3.27
2022-09-15T19:30:10.841Z,1.83
2022-09-15T19:32:39.269Z,3.03
2022-09-15T19:35:06.717Z,5.47
2022-09-15T19:37:36.922Z,1.83
2022-09-15T19:40:08.340Z,3.70
2022-09-15T19:42:36.112Z,3.50
2022-09-15T19:45:02.797Z,4.47
2022-09-15T19:47:29.711Z,3.67
2022-09-15T19:49:56.460Z,3.43
2022-09-15T19:52:23.314Z,4.43
2022-09-15T19:54:50.039Z,4.07
2022-09-15T19:57:16.920Z,5.20
2022-09-15T19:59:44.709Z,6.50
2022-09-15T20:02:12.162Z,4.47
2022-09-15T20:07:24.178Z,6.43
2022-09-15T20:09:53.450Z,5.83
2022-09-15T20:14:51.369Z,4.87
2022-09-15T20:17:18.234Z,4.07
2022-09-15T20:19:48.408Z,5.67
2022-09-15T20:22:15.095Z,6.37
2022-09-15T20:24:41.851Z,3.13
2022-09-15T20:27:16.140Z,3.60
2022-09-15T20:29:43.060Z,5.93
2022-09-15T20:32:09.802Z,8.17
2022-09-15T20:34:36.421Z,5.90
2022-09-15T20:37:03.359Z,5.20
2022-09-15T20:39:30.112Z,5.43
2022-09-15T20:41:57.718Z,7.90
2022-09-15T20:44:24.590Z,3.23
2022-09-15T20:46:52.600Z,5.97
2022-09-15T20:49:19.702Z,6.07
2022-09-15T20:51:46.410Z,7.33
2022-09-15T20:54:13.200Z,4.63
2022-09-15T20:56:39.924Z,2.57
2022-09-15T20:59:10.220Z,4.57
2022-09-15T21:01:38.688Z,3.27
2022-09-15T21:04:06.685Z,3.33
2022-09-15T21:06:35.001Z,5.80
2022-09-15T21:09:03.173Z,4.90
2022-09-15T21:16:54.045Z,7.23
2022-09-15T21:19:20.909Z,4.60
2022-09-15T21:21:52.347Z,3.33
2022-09-15T21:24:19.008Z,3.27
2022-09-15T21:27:04.227Z,3.30
2022-09-15T21:29:31.571Z,3.30
2022-09-15T21:31:58.931Z,6.33
2022-09-15T21:34:26.402Z,3.30
2022-09-15T21:36:53.723Z,6.97
2022-09-15T21:39:20.560Z,4.60
2022-09-15T21:41:47.308Z,2.87
2022-09-15T21:44:14.106Z,2.87
2022-09-15T21:46:40.986Z,3.90
2022-09-15T21:49:08.773Z,2.37
2022-09-15T21:51:36.320Z,4.77
2022-09-15T21:54:03.105Z,3.80
2022-09-15T21:56:30.141Z,3.33
2022-09-15T21:58:57.301Z,4.00
2022-09-15T22:01:29.241Z,6.57
2022-09-15T22:04:07.234Z,3.03
2022-09-15T22:06:41.606Z,5.47
2022-09-15T22:09:14.529Z,3.57
2022-09-15T22:11:41.600Z,4.33
2022-09-15T22:14:09.394Z,6.53
2022-09-15T22:16:41.589Z,4.70
2022-09-15T22:19:10.055Z,4.30
2022-09-15T22:21:41.933Z,4.13
2022-09-15T22:24:11.453Z,1.80
2022-09-15T22:26:38.727Z,6.00
2022-09-15T22:29:05.962Z,4.43
2022-09-15T22:31:33.241Z,5.20
2022-09-15T22:33:59.964Z,4.60
2022-09-15T22:36:30.146Z,4.83
2022-09-15T22:39:04.274Z,3.57
2022-09-15T22:41:37.100Z,4.07
2022-09-15T22:44:07.863Z,3.67
2022-09-15T22:46:35.122Z,3.80
2022-09-15T22:49:02.413Z,10.30
2022-09-15T22:51:29.197Z,5.90
2022-09-15T22:53:57.355Z,3.17
2022-09-15T22:56:26.749Z,5.07
2022-09-15T22:58:54.479Z,2.60
2022-09-15T23:01:23.763Z,3.07
2022-09-15T23:03:59.037Z,5.67
2022-09-15T23:06:29.033Z,4.63
2022-09-15T23:08:58.030Z,3.73
2022-09-15T23:11:28.012Z,5.00
2022-09-15T23:13:55.572Z,4.90
2022-09-15T23:16:24.302Z,2.83
2022-09-15T23:18:51.686Z,2.20
2022-09-15T23:21:19.361Z,4.90
2022-09-15T23:23:48.826Z,3.90
2022-09-15T23:26:19.506Z,3.73
2022-09-15T23:28:46.986Z,3.27
2022-09-15T23:31:14.061Z,4.17
2022-09-15T23:33:41.642Z,4.77
2022-09-15T23:36:11.877Z,5.27
2022-09-15T23:38:45.067Z,6.03
2022-09-15T23:41:12.799Z,4.00
2022-09-15T23:43:39.573Z,4.57
2022-09-15T23:46:07.029Z,3.17
2022-09-15T23:48:33.895Z,4.57
2022-09-15T23:51:01.130Z,8.27
2022-09-15T23:53:28.822Z,4.30
2022-09-15T23:55:55.572Z,3.80
2022-09-15T23:58:22.311Z,4.67
